createdAt,value
2023-02-25T00:02:23.087Z,98119.33
2023-02-25T00:04:53.473Z,98111.02
2023-02-25T00:07:24.746Z,98114.96
2023-02-25T00:09:54.555Z,98123.02
2023-02-25T00:12:24.316Z,98114.58
2023-02-25T00:14:54.347Z,98111.27
2023-02-25T00:17:24.065Z,98105.44
2023-02-25T00:19:55.041Z,98103.66
2023-02-25T00:22:25.947Z,98104.16
2023-02-25T00:24:56.508Z,98109.14
2023-02-25T00:27:26.561Z,98098.92
2023-02-25T00:29:56.832Z,98094.86
2023-02-25T00:32:27.163Z,98092.75
2023-02-25T00:34:57.481Z,98087.77
2023-02-25T00:37:27.532Z,98086.67
2023-02-25T00:39:57.414Z,98076.34
2023-02-25T00:42:29.142Z,98075.30
2023-02-25T00:44:59.228Z,98075.30
2023-02-25T00:47:28.988Z,98067.93
2023-02-25T00:49:58.801Z,98058.05
2023-02-25T00:52:28.675Z,98058.99
2023-02-25T00:55:00.203Z,98057.45
2023-02-25T00:57:31.790Z,98052.34
2023-02-25T01:00:01.635Z,98052.97
2023-02-25T01:02:31.631Z,98050.08
2023-02-25T01:05:01.551Z,98043.44
2023-02-25T01:07:31.862Z,98036.77
2023-02-25T01:10:01.769Z,98031.55
2023-02-25T01:12:31.888Z,98026.80
2023-02-25T01:15:01.432Z,98026.58
2023-02-25T01:17:31.604Z,98020.99
2023-02-25T01:20:01.350Z,98019.20
2023-02-25T01:22:31.155Z,98011.61
2023-02-25T01:25:02.632Z,98012.19
2023-02-25T01:27:32.738Z,98005.96
2023-02-25T01:30:02.628Z,98008.86
2023-02-25T01:32:33.012Z,98005.66
2023-02-25T01:35:04.822Z,98007.08
2023-02-25T01:37:34.417Z,98003.27
2023-02-25T01:40:04.994Z,98002.91
2023-02-25T01:42:36.611Z,98001.98
2023-02-25T01:45:22.322Z,97995.78
2023-02-25T01:47:55.283Z,97995.02
2023-02-25T01:50:28.456Z,97994.91
2023-02-25T01:53:01.569Z,97997.21
2023-02-25T01:55:32.070Z,97990.45
2023-02-25T01:58:02.722Z,97995.38
2023-02-25T02:00:34.070Z,97989.45
2023-02-25T02:03:05.080Z,97986.16
2023-02-25T02:05:40.658Z,97981.59
2023-02-25T02:08:11.232Z,97980.86
2023-02-25T02:10:41.048Z,97978.05
2023-02-25T02:13:10.879Z,97980.30
2023-02-25T02:15:44.041Z,97979.80
2023-02-25T02:18:14.220Z,97982.70
2023-02-25T02:20:52.623Z,97987.64
2023-02-25T02:23:25.454Z,97986.34
2023-02-25T02:26:13.902Z,97985.17
2023-02-25T02:29:09.538Z,97980.28
2023-02-25T02:31:48.088Z,97980.28
2023-02-25T02:34:37.592Z,97978.00
2023-02-25T02:37:12.834Z,97978.12
2023-02-25T02:39:48.191Z,97976.88
2023-02-25T02:42:43.692Z,97974.34
2023-02-25T02:45:16.454Z,97966.71
2023-02-25T02:47:49.249Z,97970.58
2023-02-25T02:50:39.236Z,97971.23
2023-02-25T02:53:14.618Z,97970.77
2023-02-25T02:55:53.563Z,97972.09
2023-02-25T02:58:35.688Z,97965.63
2023-02-25T03:01:28.322Z,97982.17
2023-02-25T03:04:01.274Z,97960.90
2023-02-25T03:06:43.623Z,97944.30
2023-02-25T03:09:22.530Z,97985.31
2023-02-25T03:11:52.873Z,97979.23
2023-02-25T03:14:22.859Z,97979.80
2023-02-25T03:17:04.641Z,97974.83
2023-02-25T03:19:35.049Z,97976.09
2023-02-25T03:22:07.516Z,97969.23
2023-02-25T03:24:46.170Z,97971.81
2023-02-25T03:27:32.524Z,97968.77
2023-02-25T03:30:13.015Z,97970.84
2023-02-25T03:32:46.581Z,97975.97
2023-02-25T03:35:19.421Z,97971.70
2023-02-25T03:37:51.968Z,97969.27
2023-02-25T03:40:23.927Z,97967.23
2023-02-25T03:42:59.536Z,97963.09
2023-02-25T03:45:30.903Z,97961.08
2023-02-25T03:48:00.849Z,97965.27
2023-02-25T03:50:34.041Z,97960.13
2023-02-25T03:53:06.731Z,97961.19
2023-02-25T03:55:44.066Z,97961.78
2023-02-25T03:58:13.667Z,97962.12
2023-02-25T04:00:45.774Z,97965.93
2023-02-25T04:03:15.579Z,97959.98
2023-02-25T04:05:45.589Z,97960.12
2023-02-25T04:08:19.332Z,97960.58
2023-02-25T04:10:49.268Z,97959.75
2023-02-25T04:13:21.795Z,97956.61
2023-02-25T04:15:51.296Z,97956.61
2023-02-25T04:18:21.613Z,97956.00
2023-02-25T04:20:52.153Z,97957.67
2023-02-25T04:23:21.891Z,97953.64
2023-02-25T04:25:51.677Z,97943.92
2023-02-25T04:28:21.313Z,97942.70
2023-02-25T04:30:51.680Z,97942.70
2023-02-25T04:33:21.543Z,97940.23
2023-02-25T04:35:52.315Z,97937.17
2023-02-25T04:38:22.092Z,97937.17
2023-02-25T04:40:53.431Z,97935.00
2023-02-25T04:43:23.213Z,97932.16
2023-02-25T04:45:55.473Z,97932.05
2023-02-25T04:48:25.254Z,97935.56
2023-02-25T04:50:55.920Z,97936.05
2023-02-25T04:53:25.401Z,97929.63
2023-02-25T04:55:55.212Z,97931.20
2023-02-25T04:58:24.689Z,97932.27
2023-02-25T05:00:56.125Z,97932.17
2023-02-25T05:03:25.912Z,97924.66
2023-02-25T05:05:56.055Z,97920.25
2023-02-25T05:08:26.512Z,97925.94
2023-02-25T05:10:56.679Z,97925.95
2023-02-25T05:13:26.531Z,97923.80
2023-02-25T05:16:01.889Z,97925.05
2023-02-25T05:18:31.854Z,97925.05
2023-02-25T05:21:01.694Z,97921.59
2023-02-25T05:23:31.505Z,97932.72
2023-02-25T05:26:02.224Z,97921.42
2023-02-25T05:28:31.829Z,97925.00
2023-02-25T05:31:03.246Z,97930.11
2023-02-25T05:33:32.911Z,97931.08
2023-02-25T05:36:02.969Z,97931.48
2023-02-25T05:38:34.048Z,97927.59
2023-02-25T05:41:05.966Z,97935.31
2023-02-25T05:43:36.614Z,97922.89
2023-02-25T05:46:09.549Z,97928.19
2023-02-25T05:48:40.687Z,97928.19
2023-02-25T05:51:13.169Z,97921.51
2023-02-25T05:53:44.816Z,97926.26
2023-02-25T05:56:16.780Z,97924.72
2023-02-25T05:58:48.388Z,97924.72
2023-02-25T06:01:24.267Z,97937.20
2023-02-25T06:03:55.898Z,97934.50
2023-02-25T06:06:27.986Z,97943.42
2023-02-25T06:08:58.221Z,97948.06
2023-02-25T06:11:30.841Z,97949.35
2023-02-25T06:14:01.271Z,97952.92
2023-02-25T06:16:32.502Z,97944.27
2023-02-25T06:19:03.045Z,97948.66
2023-02-25T06:21:33.926Z,97940.27
2023-02-25T06:24:05.677Z,97940.27
2023-02-25T06:26:38.007Z,97953.69
2023-02-25T06:29:07.997Z,97964.03
2023-02-25T06:31:38.156Z,97965.70
2023-02-25T06:34:08.138Z,97976.74
2023-02-25T06:36:38.214Z,97974.37
2023-02-25T06:39:08.129Z,97972.59
2023-02-25T06:41:37.905Z,97983.98
2023-02-25T06:44:07.468Z,97970.92
2023-02-25T06:46:37.246Z,97980.34
2023-02-25T06:49:07.297Z,97985.30
2023-02-25T06:51:37.251Z,97992.22
2023-02-25T06:54:07.020Z,97996.61
2023-02-25T06:56:36.851Z,97994.58
2023-02-25T06:59:06.696Z,97999.81
2023-02-25T07:01:37.828Z,97996.25
2023-02-25T07:04:07.821Z,98001.32
2023-02-25T07:06:37.618Z,97996.57
2023-02-25T07:09:07.220Z,97996.92
2023-02-25T07:11:37.747Z,97994.55
2023-02-25T07:14:08.029Z,98004.05
2023-02-25T07:16:37.754Z,97998.23
2023-02-25T07:19:07.482Z,98000.25
2023-02-25T07:21:38.259Z,97998.58
2023-02-25T07:24:08.399Z,98000.25
2023-02-25T07:26:38.337Z,98003.37
2023-02-25T07:29:09.892Z,98003.37
2023-02-25T07:31:40.548Z,97995.89
2023-02-25T07:34:11.301Z,98002.54
2023-02-25T07:36:40.836Z,97997.79
2023-02-25T07:39:12.101Z,98003.60
2023-02-25T07:41:42.037Z,97997.91
2023-02-25T07:44:13.699Z,98002.30
2023-02-25T07:46:43.450Z,98001.23
2023-02-25T07:49:13.126Z,98007.85
2023-02-25T07:51:42.892Z,98002.86
2023-02-25T07:54:12.496Z,98015.92
2023-02-25T07:56:42.641Z,98014.14
2023-02-25T07:59:12.184Z,98005.08
2023-02-25T08:01:42.047Z,98006.50
2023-02-25T08:04:12.371Z,97998.13
2023-02-25T08:06:43.255Z,97998.13
2023-02-25T08:09:13.804Z,98001.13
2023-02-25T08:11:44.323Z,97998.06
2023-02-25T08:14:13.881Z,97998.06
2023-02-25T08:16:43.844Z,98006.38
2023-02-25T08:19:13.388Z,98015.64
2023-02-25T08:21:43.206Z,98010.55
2023-02-25T08:24:12.738Z,98014.14
2023-02-25T08:26:42.812Z,98019.95
2023-02-25T08:29:12.607Z,98021.11
2023-02-25T08:31:42.666Z,98030.02
2023-02-25T08:34:12.246Z,98018.84
2023-02-25T08:36:42.082Z,98031.12
2023-02-25T08:39:12.427Z,98031.95
2023-02-25T08:41:42.934Z,98032.19
2023-02-25T08:44:12.996Z,98038.95
2023-02-25T08:46:43.076Z,98030.17
2023-02-25T08:49:13.514Z,98040.27
2023-02-25T08:51:43.127Z,98037.77
2023-02-25T08:54:14.822Z,98039.08
2023-02-25T08:56:45.036Z,98036.20
2023-02-25T08:59:17.349Z,98042.73
2023-02-25T09:01:48.699Z,98049.73
2023-02-25T09:04:23.027Z,98051.88
2023-02-25T09:06:54.348Z,98051.63
2023-02-25T09:09:23.374Z,98053.66
2023-02-25T09:11:53.954Z,98055.46
2023-02-25T09:14:23.993Z,98059.14
2023-02-25T09:16:53.885Z,98063.53
2023-02-25T09:19:23.498Z,98065.91
2023-02-25T09:21:53.436Z,98070.66
2023-02-25T09:24:23.292Z,98066.13
2023-02-25T09:26:53.163Z,98070.87
2023-02-25T09:29:22.751Z,98070.87
2023-02-25T09:31:54.141Z,98063.27
2023-02-25T09:34:24.122Z,98073.13
2023-02-25T09:36:53.898Z,98078.62
2023-02-25T09:39:23.411Z,98082.16
2023-02-25T09:42:05.142Z,98089.36
2023-02-25T09:44:41.344Z,98086.67
2023-02-25T09:47:19.906Z,98094.27
2023-02-25T09:49:58.591Z,98100.45
2023-02-25T09:52:52.377Z,98100.09
2023-02-25T09:55:33.810Z,98108.05
2023-02-25T09:58:15.163Z,98106.38
2023-02-25T10:01:04.578Z,98103.78
2023-02-25T10:03:37.751Z,98111.25
2023-02-25T10:06:27.573Z,98127.67
2023-02-25T10:09:12.239Z,98127.67
2023-02-25T10:12:02.840Z,98114.36
2023-02-25T10:14:38.452Z,98130.97
2023-02-25T10:17:23.321Z,98132.14
2023-02-25T10:20:01.906Z,98136.53
2023-02-25T10:22:43.543Z,98144.11
2023-02-25T10:25:25.141Z,98125.17
2023-02-25T10:28:05.247Z,98133.02
2023-02-25T10:30:53.157Z,98136.09
2023-02-25T10:33:25.300Z,98135.97
2023-02-25T10:36:04.150Z,98135.97
2023-02-25T10:38:35.288Z,98138.22
2023-02-25T10:41:07.048Z,98132.42
2023-02-25T10:43:37.200Z,98144.11
2023-02-25T10:46:16.303Z,98142.33
2023-02-25T10:48:57.923Z,98148.24
2023-02-25T10:51:29.955Z,98146.73
2023-02-25T10:54:05.754Z,98147.41
2023-02-25T10:56:49.701Z,98143.84
2023-02-25T10:59:40.032Z,98161.70
2023-02-25T11:02:31.545Z,98163.36
2023-02-25T11:05:01.406Z,98153.17
2023-02-25T11:07:40.190Z,98173.34
2023-02-25T11:10:21.801Z,98173.28
2023-02-25T11:12:54.642Z,98176.91
2023-02-25T11:15:43.689Z,98173.11
2023-02-25T11:18:23.145Z,98181.67
2023-02-25T11:20:56.056Z,98174.40
2023-02-25T11:23:40.724Z,98172.13
2023-02-25T11:26:13.956Z,98167.61
2023-02-25T11:28:49.442Z,98166.55
2023-02-25T11:31:25.411Z,98175.91
2023-02-25T11:34:04.143Z,98182.45
2023-02-25T11:36:38.899Z,98182.53
2023-02-25T11:39:23.846Z,98177.15
2023-02-25T11:41:56.382Z,98182.97
2023-02-25T11:44:31.810Z,98181.55
2023-02-25T11:47:10.705Z,98178.58
2023-02-25T11:49:46.333Z,98189.77
2023-02-25T11:52:35.428Z,98188.70
2023-02-25T11:55:18.214Z,98196.76
2023-02-25T11:57:58.154Z,98199.66
2023-02-25T12:00:42.843Z,98205.81
2023-02-25T12:03:18.235Z,98219.34
2023-02-25T12:05:56.950Z,98221.69
2023-02-25T12:08:56.947Z,98227.11
2023-02-25T12:11:49.618Z,98232.48
2023-02-25T12:14:28.192Z,98235.34
2023-02-25T12:17:19.571Z,98237.02
2023-02-25T12:20:13.211Z,98239.29
2023-02-25T12:22:49.099Z,98241.31
2023-02-25T12:25:27.396Z,98246.53
2023-02-25T12:28:18.652Z,98243.33
2023-02-25T12:31:09.832Z,98250.72
2023-02-25T12:33:55.014Z,98230.73
2023-02-25T12:36:33.562Z,98249.43
2023-02-25T12:39:24.572Z,98260.78
2023-02-25T12:42:00.636Z,98263.39
2023-02-25T12:44:39.452Z,98269.17
2023-02-25T12:47:18.163Z,98267.75
2023-02-25T12:49:59.887Z,98273.55
2023-02-25T12:52:44.966Z,98282.89
2023-02-25T12:55:40.011Z,98282.89
2023-02-25T12:58:19.916Z,98284.89
2023-02-25T13:00:56.564Z,98285.11
2023-02-25T13:03:44.629Z,98288.41
2023-02-25T13:06:23.364Z,98299.73
2023-02-25T13:09:01.142Z,98305.82
2023-02-25T13:12:09.989Z,98304.00
2023-02-25T13:14:26.404Z,98304.00
2023-02-25T13:17:30.934Z,98320.25
2023-02-25T13:20:23.087Z,98318.64
2023-02-25T13:22:58.926Z,98324.42
2023-02-25T13:25:40.993Z,98317.95
2023-02-25T13:28:26.041Z,98332.82
2023-02-25T13:31:15.153Z,98332.82
2023-02-25T13:34:15.184Z,98338.04
2023-02-25T13:36:56.969Z,98344.32
2023-02-25T13:39:59.633Z,98355.42
2023-02-25T13:42:44.263Z,98355.42
2023-02-25T13:45:16.795Z,98360.07
2023-02-25T13:48:09.270Z,98366.41
2023-02-25T13:50:51.289Z,98364.23
2023-02-25T13:53:35.820Z,98368.84
2023-02-25T13:56:15.553Z,98371.45
2023-02-25T13:59:07.351Z,98375.21
2023-02-25T14:01:55.365Z,98380.33
2023-02-25T14:04:44.343Z,98387.84
2023-02-25T14:07:38.470Z,98382.19
2023-02-25T14:10:23.311Z,98382.34
2023-02-25T14:12:56.134Z,98398.49
2023-02-25T14:15:54.388Z,98395.61
2023-02-25T14:18:48.366Z,98404.73
2023-02-25T14:21:29.760Z,98399.42
2023-02-25T14:24:14.504Z,98404.21
2023-02-25T14:26:59.219Z,98422.92
2023-02-25T14:29:43.697Z,98423.27
2023-02-25T14:32:37.249Z,98434.67
2023-02-25T14:35:32.954Z,98437.28
2023-02-25T14:38:17.826Z,98436.42
2023-02-25T14:40:50.627Z,98440.13
2023-02-25T14:43:26.188Z,98440.13
2023-02-25T14:46:15.544Z,98450.83
2023-02-25T14:48:51.549Z,98448.61
2023-02-25T14:51:38.901Z,98461.97
2023-02-25T14:54:27.444Z,98463.63
2023-02-25T14:57:09.345Z,98476.09
2023-02-25T14:59:53.309Z,98478.53
2023-02-25T15:02:26.020Z,98485.16
2023-02-25T15:05:16.913Z,98489.96
2023-02-25T15:07:52.286Z,98499.78
2023-02-25T15:10:25.322Z,98507.05
2023-02-25T15:13:00.980Z,98501.45
2023-02-25T15:15:39.798Z,98504.32
2023-02-25T15:18:45.874Z,98517.59
2023-02-25T15:21:38.337Z,98517.59
2023-02-25T15:24:13.968Z,98523.75
2023-02-25T15:26:46.878Z,98531.47
2023-02-25T15:29:34.710Z,98526.82
2023-02-25T15:32:30.605Z,98536.81
2023-02-25T15:35:06.513Z,98539.22
2023-02-25T15:37:40.154Z,98551.16
2023-02-25T15:40:22.066Z,98551.38
2023-02-25T15:42:57.127Z,98549.27
2023-02-25T15:45:30.619Z,98557.36
2023-02-25T15:48:14.114Z,98557.36
2023-02-25T15:50:47.215Z,98569.44
2023-02-25T15:53:24.463Z,98569.16
2023-02-25T15:56:09.502Z,98571.17
2023-02-25T15:58:56.723Z,98574.66
2023-02-25T16:01:42.714Z,98580.39
2023-02-25T16:04:43.220Z,98584.72
2023-02-25T16:07:18.894Z,98587.11
2023-02-25T16:09:57.251Z,98597.56
2023-02-25T16:12:29.642Z,98604.57
2023-02-25T16:15:00.558Z,98604.63
2023-02-25T16:17:36.087Z,98609.78
2023-02-25T16:20:31.152Z,98604.70
2023-02-25T16:23:01.819Z,98621.89
2023-02-25T16:26:07.425Z,98632.75
2023-02-25T16:28:40.835Z,98632.75
2023-02-25T16:31:31.891Z,98640.95
2023-02-25T16:34:06.948Z,98638.70
2023-02-25T16:37:14.668Z,98649.93
2023-02-25T16:39:44.984Z,98649.88
2023-02-25T16:42:17.369Z,98660.41
2023-02-25T16:44:49.849Z,98664.45
2023-02-25T16:47:25.510Z,98666.36
2023-02-25T16:49:57.696Z,98677.48
2023-02-25T16:52:36.102Z,98667.48
2023-02-25T16:55:12.977Z,98686.88
2023-02-25T16:57:42.782Z,98686.88
2023-02-25T17:00:23.224Z,98693.77
2023-02-25T17:02:54.077Z,98694.42
2023-02-25T17:05:32.556Z,98706.52
2023-02-25T17:08:05.088Z,98713.41
2023-02-25T17:10:46.873Z,98719.54
2023-02-25T17:13:25.751Z,98722.16
2023-02-25T17:15:56.783Z,98736.67
2023-02-25T17:18:32.844Z,98737.80
2023-02-25T17:21:09.160Z,98746.35
2023-02-25T17:23:42.086Z,98750.35
2023-02-25T17:26:17.042Z,98748.79
2023-02-25T17:28:49.720Z,98749.44
2023-02-25T17:31:24.145Z,98753.70
2023-02-25T17:34:03.959Z,98753.70
2023-02-25T17:36:42.565Z,98760.87
2023-02-25T17:39:18.370Z,98771.66
2023-02-25T17:41:49.704Z,98763.10
2023-02-25T17:44:43.604Z,98764.59
2023-02-25T17:47:15.982Z,98766.56
2023-02-25T17:49:46.202Z,98773.53
2023-02-25T17:52:24.504Z,98776.88
2023-02-25T17:55:05.746Z,98773.45
2023-02-25T17:57:37.316Z,98788.42
2023-02-25T18:00:14.254Z,98786.36
2023-02-25T18:02:44.615Z,98789.35
2023-02-25T18:05:18.646Z,98786.64
2023-02-25T18:08:11.434Z,98793.33
2023-02-25T18:10:44.023Z,98800.77
2023-02-25T18:13:37.524Z,98808.12
2023-02-25T18:16:31.578Z,98807.57
2023-02-25T18:19:02.159Z,98806.55
2023-02-25T18:21:31.822Z,98812.95
2023-02-25T18:24:01.936Z,98814.26
2023-02-25T18:26:31.808Z,98815.27
2023-02-25T18:29:01.904Z,98817.80
2023-02-25T18:31:32.846Z,98822.54
2023-02-25T18:34:02.660Z,98828.13
2023-02-25T18:36:32.813Z,98828.33
2023-02-25T18:39:05.130Z,98838.25
2023-02-25T18:41:34.921Z,98843.49
2023-02-25T18:44:09.267Z,98846.62
2023-02-25T18:46:38.833Z,98842.45
2023-02-25T18:49:08.727Z,98849.34
2023-02-25T18:51:40.736Z,98857.33
2023-02-25T18:54:13.540Z,98862.25
2023-02-25T18:56:43.369Z,98864.05
2023-02-25T18:59:12.901Z,98864.05
2023-02-25T19:01:43.004Z,98868.24
2023-02-25T19:04:19.728Z,98872.32
2023-02-25T19:06:49.908Z,98882.34
2023-02-25T19:09:19.414Z,98882.34
2023-02-25T19:11:49.188Z,98879.27
2023-02-25T19:14:20.220Z,98887.28
2023-02-25T19:16:49.740Z,98887.28
2023-02-25T19:19:19.233Z,98897.10
2023-02-25T19:21:49.012Z,98902.45
2023-02-25T19:24:18.790Z,98905.64
2023-02-25T19:26:48.575Z,98908.08
2023-02-25T19:29:18.173Z,98918.78
2023-02-25T19:31:48.050Z,98913.05
2023-02-25T19:34:17.636Z,98921.81
2023-02-25T19:36:47.486Z,98932.23
2023-02-25T19:39:17.387Z,98930.64
2023-02-25T19:41:47.151Z,98939.67
2023-02-25T19:44:16.955Z,98945.34
2023-02-25T19:46:46.838Z,98941.06
2023-02-25T19:49:16.670Z,98952.28
2023-02-25T19:51:46.466Z,98954.97
2023-02-25T19:54:16.251Z,98966.11
2023-02-25T19:56:46.029Z,98960.98
2023-02-25T19:59:16.158Z,98973.03
2023-02-25T20:01:47.124Z,98970.14
2023-02-25T20:04:16.528Z,98969.67
2023-02-25T20:06:46.458Z,98975.94
2023-02-25T20:09:16.575Z,98983.38
2023-02-25T20:11:47.224Z,98987.65
2023-02-25T20:14:17.340Z,99001.38
2023-02-25T20:16:47.163Z,98999.47
2023-02-25T20:19:17.387Z,99003.13
2023-02-25T20:21:47.308Z,99007.28
2023-02-25T20:24:17.098Z,99020.37
2023-02-25T20:26:46.874Z,99015.16
2023-02-25T20:29:16.718Z,99027.64
2023-02-25T20:31:46.663Z,99030.25
2023-02-25T20:34:19.776Z,99030.25
2023-02-25T20:36:58.375Z,99032.93
2023-02-25T20:39:44.020Z,99041.20
2023-02-25T20:42:17.567Z,99045.97
2023-02-25T20:44:51.335Z,99049.50
2023-02-25T20:47:29.173Z,99044.44
2023-02-25T20:49:59.516Z,99052.16
2023-02-25T20:52:29.263Z,99057.84
2023-02-25T20:54:59.664Z,99063.89
2023-02-25T20:57:30.016Z,99067.09
2023-02-25T20:59:59.813Z,99067.36
2023-02-25T21:02:29.662Z,99073.92
2023-02-25T21:04:59.401Z,99078.67
2023-02-25T21:07:29.202Z,99083.80
2023-02-25T21:09:59.237Z,99080.27
2023-02-25T21:12:29.097Z,99084.13
2023-02-25T21:14:58.975Z,99087.13
2023-02-25T21:17:28.761Z,99089.40
2023-02-25T21:19:58.567Z,99096.14
2023-02-25T21:22:28.401Z,99096.14
2023-02-25T21:24:59.116Z,99100.65
2023-02-25T21:27:29.012Z,99109.10
2023-02-25T21:29:59.199Z,99109.10
2023-02-25T21:32:28.919Z,99112.06
2023-02-25T21:34:58.727Z,99111.02
2023-02-25T21:37:28.485Z,99117.95
2023-02-25T21:39:58.586Z,99118.42
2023-02-25T21:42:28.440Z,99121.41
2023-02-25T21:44:58.253Z,99128.92
2023-02-25T21:47:28.358Z,99132.44
2023-02-25T21:49:58.188Z,99132.21
2023-02-25T21:52:27.937Z,99136.69
2023-02-25T21:54:58.038Z,99131.94
2023-02-25T21:57:27.816Z,99142.01
2023-02-25T21:59:57.680Z,99145.72
2023-02-25T22:02:30.478Z,99144.57
2023-02-25T22:05:00.863Z,99139.98
2023-02-25T22:07:30.717Z,99147.37
2023-02-25T22:10:00.669Z,99154.52
2023-02-25T22:12:30.985Z,99153.06
2023-02-25T22:15:00.597Z,99161.72
2023-02-25T22:17:30.361Z,99161.41
2023-02-25T22:20:00.254Z,99164.55
2023-02-25T22:22:30.569Z,99173.42
2023-02-25T22:25:01.726Z,99175.27
2023-02-25T22:27:31.665Z,99175.27
2023-02-25T22:30:01.453Z,99183.84
2023-02-25T22:32:31.442Z,99185.06
2023-02-25T22:35:02.216Z,99188.44
2023-02-25T22:37:33.542Z,99187.13
2023-02-25T22:40:03.340Z,99189.03
2023-02-25T22:42:33.131Z,99187.34
2023-02-25T22:45:02.967Z,99189.72
2023-02-25T22:47:32.944Z,99203.30
2023-02-25T22:50:02.774Z,99208.11
2023-02-25T22:52:32.525Z,99215.37
2023-02-25T22:55:02.341Z,99210.60
2023-02-25T22:57:32.402Z,99219.11
2023-02-25T23:00:02.217Z,99224.16
2023-02-25T23:02:32.066Z,99223.08
2023-02-25T23:05:01.786Z,99233.41
2023-02-25T23:07:31.588Z,99237.02
2023-02-25T23:10:01.362Z,99233.94
2023-02-25T23:12:32.111Z,99242.54
2023-02-25T23:15:01.888Z,99250.34
2023-02-25T23:17:31.709Z,99246.34
2023-02-25T23:20:01.658Z,99253.16
2023-02-25T23:22:33.718Z,99254.78
2023-02-25T23:25:03.574Z,99260.73
2023-02-25T23:27:35.145Z,99253.77
2023-02-25T23:30:06.065Z,99272.50
2023-02-25T23:32:36.228Z,99264.95
2023-02-25T23:35:06.583Z,99270.61
2023-02-25T23:37:36.752Z,99267.77
2023-02-25T23:40:10.488Z,99278.63
2023-02-25T23:42:44.991Z,99280.87
2023-02-25T23:45:16.207Z,99283.37
2023-02-25T23:47:45.032Z,99285.30
2023-02-25T23:50:17.671Z,99293.48
2023-02-25T23:52:48.409Z,99292.89
2023-02-25T23:55:17.977Z,99292.61
2023-02-25T23:57:48.034Z,99294.16
